sensor_id;sensor_type;location;lat;lon;timestamp;pressure;altitude;pressure_sealevel;temperature
41940;BMP180;23057;48.554;14.454;2023-12-14T00:00:50;92398.00;;;11.00
41940;BMP180;23057;48.554;14.454;2023-12-14T00:03:21;92398.00;;;11.10
41940;BMP180;23057;48.554;14.454;2023-12-14T00:05:51;92408.00;;;11.10
41940;BMP180;23057;48.554;14.454;2023-12-14T00:08:22;92402.00;;;11.10
41940;BMP180;23057;48.554;14.454;2023-12-14T00:10:53;92408.00;;;11.10
41940;BMP180;23057;48.554;14.454;2023-12-14T00:13:24;92417.00;;;11.10
41940;BMP180;23057;48.554;14.454;2023-12-14T00:15:54;92413.00;;;11.10
41940;BMP180;23057;48.554;14.454;2023-12-14T00:18:25;92419.00;;;11.10
41940;BMP180;23057;48.554;14.454;2023-12-14T00:20:56;92422.00;;;11.10
41940;BMP180;23057;48.554;14.454;2023-12-14T00:23:27;92427.00;;;11.10
41940;BMP180;23057;48.554;14.454;2023-12-14T00:25:58;92424.00;;;11.10
41940;BMP180;23057;48.554;14.454;2023-12-14T00:28:28;92427.00;;;11.10
41940;BMP180;23057;48.554;14.454;2023-12-14T00:30:59;92421.00;;;11.10
41940;BMP180;23057;48.554;14.454;2023-12-14T00:33:30;92428.00;;;11.20
41940;BMP180;23057;48.554;14.454;2023-12-14T00:36:01;92424.00;;;11.20
41940;BMP180;23057;48.554;14.454;2023-12-14T00:38:32;92432.00;;;11.20
41940;BMP180;23057;48.554;14.454;2023-12-14T00:41:03;92426.00;;;11.20
41940;BMP180;23057;48.554;14.454;2023-12-14T00:43:34;92431.00;;;11.20
41940;BMP180;23057;48.554;14.454;2023-12-14T00:46:05;92445.00;;;11.20
41940;BMP180;23057;48.554;14.454;2023-12-14T00:48:36;92438.00;;;11.10
41940;BMP180;23057;48.554;14.454;2023-12-14T00:51:07;92447.00;;;11.10
41940;BMP180;23057;48.554;14.454;2023-12-14T00:53:37;92442.00;;;11.10
41940;BMP180;23057;48.554;14.454;2023-12-14T00:56:09;92455.00;;;11.10
41940;BMP180;23057;48.554;14.454;2023-12-14T00:58:39;92465.00;;;11.00
41940;BMP180;23057;48.554;14.454;2023-12-14T01:01:10;92456.00;;;11.00
41940;BMP180;23057;48.554;14.454;2023-12-14T01:03:41;92468.00;;;11.00
41940;BMP180;23057;48.554;14.454;2023-12-14T01:06:12;92472.00;;;11.00
41940;BMP180;23057;48.554;14.454;2023-12-14T01:08:43;92475.00;;;11.00
41940;BMP180;23057;48.554;14.454;2023-12-14T01:11:14;92476.00;;;11.00
41940;BMP180;23057;48.554;14.454;2023-12-14T01:13:45;92481.00;;;11.00
41940;BMP180;23057;48.554;14.454;2023-12-14T01:16:15;92479.00;;;11.00
41940;BMP180;23057;48.554;14.454;2023-12-14T01:18:46;92485.00;;;11.10
41940;BMP180;23057;48.554;14.454;2023-12-14T01:21:17;92494.00;;;11.10
41940;BMP180;23057;48.554;14.454;2023-12-14T01:23:48;92488.00;;;11.10
41940;BMP180;23057;48.554;14.454;2023-12-14T01:26:19;92491.00;;;11.10
41940;BMP180;23057;48.554;14.454;2023-12-14T01:28:50;92500.00;;;11.10
41940;BMP180;23057;48.554;14.454;2023-12-14T01:31:21;92495.00;;;11.10
41940;BMP180;23057;48.554;14.454;2023-12-14T01:33:55;92503.00;;;11.20
41940;BMP180;23057;48.554;14.454;2023-12-14T01:36:26;92506.00;;;11.20
41940;BMP180;23057;48.554;14.454;2023-12-14T01:38:57;92508.00;;;11.20
41940;BMP180;23057;48.554;14.454;2023-12-14T01:41:28;92509.00;;;11.20
41940;BMP180;23057;48.554;14.454;2023-12-14T01:44:00;92514.00;;;11.20
41940;BMP180;23057;48.554;14.454;2023-12-14T01:46:30;92510.00;;;11.20
41940;BMP180;23057;48.554;14.454;2023-12-14T01:49:01;92508.00;;;11.20
41940;BMP180;23057;48.554;14.454;2023-12-14T01:51:32;92510.00;;;11.30
41940;BMP180;23057;48.554;14.454;2023-12-14T01:54:04;92503.00;;;11.30
41940;BMP180;23057;48.554;14.454;2023-12-14T01:56:35;92512.00;;;11.30
41940;BMP180;23057;48.554;14.454;2023-12-14T01:59:06;92517.00;;;11.30
41940;BMP180;23057;48.554;14.454;2023-12-14T02:01:43;92521.00;;;11.30
41940;BMP180;23057;48.554;14.454;2023-12-14T02:04:16;92525.00;;;11.30
41940;BMP180;23057;48.554;14.454;2023-12-14T02:06:46;92526.00;;;11.30
41940;BMP180;23057;48.554;14.454;2023-12-14T02:09:17;92526.00;;;11.30
41940;BMP180;23057;48.554;14.454;2023-12-14T02:11:48;92528.00;;;11.30
41940;BMP180;23057;48.554;14.454;2023-12-14T02:14:21;92531.00;;;11.30
41940;BMP180;23057;48.554;14.454;2023-12-14T02:16:53;92523.00;;;11.30
41940;BMP180;23057;48.554;14.454;2023-12-14T02:19:24;92535.00;;;11.30
41940;BMP180;23057;48.554;14.454;2023-12-14T02:21:55;92528.00;;;11.40
41940;BMP180;23057;48.554;14.454;2023-12-14T02:24:25;92532.00;;;11.40
41940;BMP180;23057;48.554;14.454;2023-12-14T02:26:57;92537.00;;;11.40
41940;BMP180;23057;48.554;14.454;2023-12-14T02:29:28;92539.00;;;11.40
41940;BMP180;23057;48.554;14.454;2023-12-14T02:31:59;92539.00;;;11.40
41940;BMP180;23057;48.554;14.454;2023-12-14T02:34:30;92544.00;;;11.40
41940;BMP180;23057;48.554;14.454;2023-12-14T02:37:00;92544.00;;;11.40
41940;BMP180;23057;48.554;14.454;2023-12-14T02:39:31;92546.00;;;11.40
41940;BMP180;23057;48.554;14.454;2023-12-14T02:42:02;92559.00;;;11.40
41940;BMP180;23057;48.554;14.454;2023-12-14T02:44:33;92550.00;;;11.30
41940;BMP180;23057;48.554;14.454;2023-12-14T02:47:04;92544.00;;;11.40
41940;BMP180;23057;48.554;14.454;2023-12-14T02:49:34;92550.00;;;11.30
41940;BMP180;23057;48.554;14.454;2023-12-14T02:52:05;92556.00;;;11.30
41940;BMP180;23057;48.554;14.454;2023-12-14T02:54:38;92560.00;;;11.20
41940;BMP180;23057;48.554;14.454;2023-12-14T02:57:10;92557.00;;;11.20
41940;BMP180;23057;48.554;14.454;2023-12-14T02:59:41;92557.00;;;11.20
41940;BMP180;23057;48.554;14.454;2023-12-14T03:02:11;92564.00;;;11.20
41940;BMP180;23057;48.554;14.454;2023-12-14T03:04:42;92568.00;;;11.20
41940;BMP180;23057;48.554;14.454;2023-12-14T03:07:13;92567.00;;;11.20
41940;BMP180;23057;48.554;14.454;2023-12-14T03:09:44;92569.00;;;11.20
41940;BMP180;23057;48.554;14.454;2023-12-14T03:12:15;92574.00;;;11.20
41940;BMP180;23057;48.554;14.454;2023-12-14T03:14:46;92578.00;;;11.20
41940;BMP180;23057;48.554;14.454;2023-12-14T03:17:16;92577.00;;;11.20
41940;BMP180;23057;48.554;14.454;2023-12-14T03:19:47;92581.00;;;11.20
41940;BMP180;23057;48.554;14.454;2023-12-14T03:22:18;92573.00;;;11.20
41940;BMP180;23057;48.554;14.454;2023-12-14T03:24:49;92580.00;;;11.20
41940;BMP180;23057;48.554;14.454;2023-12-14T03:27:20;92580.00;;;11.20
41940;BMP180;23057;48.554;14.454;2023-12-14T03:29:53;92589.00;;;11.20
41940;BMP180;23057;48.554;14.454;2023-12-14T03:32:23;92593.00;;;11.30
41940;BMP180;23057;48.554;14.454;2023-12-14T03:34:55;92594.00;;;11.30
41940;BMP180;23057;48.554;14.454;2023-12-14T03:37:25;92596.00;;;11.30
41940;BMP180;23057;48.554;14.454;2023-12-14T03:39:56;92597.00;;;11.20
41940;BMP180;23057;48.554;14.454;2023-12-14T03:42:27;92608.00;;;11.20
41940;BMP180;23057;48.554;14.454;2023-12-14T03:44:58;92607.00;;;11.10
41940;BMP180;23057;48.554;14.454;2023-12-14T03:47:28;92605.00;;;11.20
41940;BMP180;23057;48.554;14.454;2023-12-14T03:49:59;92610.00;;;11.20
41940;BMP180;23057;48.554;14.454;2023-12-14T03:52:30;92609.00;;;11.20
41940;BMP180;23057;48.554;14.454;2023-12-14T03:55:01;92622.00;;;11.20
41940;BMP180;23057;48.554;14.454;2023-12-14T03:57:32;92622.00;;;11.20
41940;BMP180;23057;48.554;14.454;2023-12-14T04:00:04;92621.00;;;11.20
41940;BMP180;23057;48.554;14.454;2023-12-14T04:02:35;92627.00;;;11.20
41940;BMP180;23057;48.554;14.454;2023-12-14T04:05:07;92628.00;;;11.20
41940;BMP180;23057;48.554;14.454;2023-12-14T04:07:39;92634.00;;;11.20
41940;BMP180;23057;48.554;14.454;2023-12-14T04:10:13;92642.00;;;11.20
41940;BMP180;23057;48.554;14.454;2023-12-14T04:12:44;92643.00;;;11.30
41940;BMP180;23057;48.554;14.454;2023-12-14T04:15:15;92641.00;;;11.30
41940;BMP180;23057;48.554;14.454;2023-12-14T04:17:45;92653.00;;;11.30
41940;BMP180;23057;48.554;14.454;2023-12-14T04:20:16;92648.00;;;11.30
41940;BMP180;23057;48.554;14.454;2023-12-14T04:22:47;92657.00;;;11.20
41940;BMP180;23057;48.554;14.454;2023-12-14T04:25:18;92660.00;;;11.30
41940;BMP180;23057;48.554;14.454;2023-12-14T04:27:50;92656.00;;;11.30
41940;BMP180;23057;48.554;14.454;2023-12-14T04:30:21;92675.00;;;11.30
41940;BMP180;23057;48.554;14.454;2023-12-14T04:32:52;92674.00;;;11.30
41940;BMP180;23057;48.554;14.454;2023-12-14T04:35:24;92681.00;;;11.30
41940;BMP180;23057;48.554;14.454;2023-12-14T04:37:54;92684.00;;;11.30
41940;BMP180;23057;48.554;14.454;2023-12-14T04:40:25;92682.00;;;11.20
41940;BMP180;23057;48.554;14.454;2023-12-14T04:42:56;92685.00;;;11.00
41940;BMP180;23057;48.554;14.454;2023-12-14T04:45:27;92687.00;;;11.00
41940;BMP180;23057;48.554;14.454;2023-12-14T04:47:57;92689.00;;;11.00
41940;BMP180;23057;48.554;14.454;2023-12-14T04:50:28;92695.00;;;11.00
41940;BMP180;23057;48.554;14.454;2023-12-14T04:52:59;92702.00;;;11.10
41940;BMP180;23057;48.554;14.454;2023-12-14T04:55:30;92709.00;;;11.10
41940;BMP180;23057;48.554;14.454;2023-12-14T04:58:01;92707.00;;;11.00
41940;BMP180;23057;48.554;14.454;2023-12-14T05:00:32;92707.00;;;10.90
41940;BMP180;23057;48.554;14.454;2023-12-14T05:03:02;92709.00;;;10.90
41940;BMP180;23057;48.554;14.454;2023-12-14T05:05:33;92709.00;;;10.90
41940;BMP180;23057;48.554;14.454;2023-12-14T05:08:04;92711.00;;;11.00
41940;BMP180;23057;48.554;14.454;2023-12-14T05:10:35;92716.00;;;11.10
41940;BMP180;23057;48.554;14.454;2023-12-14T05:13:06;92720.00;;;11.10
41940;BMP180;23057;48.554;14.454;2023-12-14T05:15:37;92724.00;;;11.20
41940;BMP180;23057;48.554;14.454;2023-12-14T05:18:08;92720.00;;;11.20
41940;BMP180;23057;48.554;14.454;2023-12-14T05:20:39;92726.00;;;11.30
41940;BMP180;23057;48.554;14.454;2023-12-14T05:23:09;92730.00;;;11.30
41940;BMP180;23057;48.554;14.454;2023-12-14T05:25:40;92733.00;;;11.30
41940;BMP180;23057;48.554;14.454;2023-12-14T05:28:11;92740.00;;;11.30
41940;BMP180;23057;48.554;14.454;2023-12-14T05:30:42;92746.00;;;11.20
41940;BMP180;23057;48.554;14.454;2023-12-14T05:33:13;92747.00;;;11.20
41940;BMP180;23057;48.554;14.454;2023-12-14T05:35:44;92756.00;;;11.20
41940;BMP180;23057;48.554;14.454;2023-12-14T05:38:15;92754.00;;;11.20
41940;BMP180;23057;48.554;14.454;2023-12-14T05:40:46;92757.00;;;11.20
41940;BMP180;23057;48.554;14.454;2023-12-14T05:43:16;92751.00;;;11.30
41940;BMP180;23057;48.554;14.454;2023-12-14T05:45:47;92769.00;;;11.30
41940;BMP180;23057;48.554;14.454;2023-12-14T05:48:18;92770.00;;;11.30
41940;BMP180;23057;48.554;14.454;2023-12-14T05:50:51;92768.00;;;11.30
41940;BMP180;23057;48.554;14.454;2023-12-14T05:53:22;92784.00;;;11.20
41940;BMP180;23057;48.554;14.454;2023-12-14T05:55:53;92782.00;;;11.20
41940;BMP180;23057;48.554;14.454;2023-12-14T05:58:24;92785.00;;;11.20
41940;BMP180;23057;48.554;14.454;2023-12-14T06:00:54;92788.00;;;11.20
41940;BMP180;23057;48.554;14.454;2023-12-14T06:03:27;92795.00;;;11.20
41940;BMP180;23057;48.554;14.454;2023-12-14T06:05:58;92793.00;;;11.20
41940;BMP180;23057;48.554;14.454;2023-12-14T06:08:28;92798.00;;;11.20
41940;BMP180;23057;48.554;14.454;2023-12-14T06:10:59;92800.00;;;11.30
41940;BMP180;23057;48.554;14.454;2023-12-14T06:13:30;92808.00;;;11.30
41940;BMP180;23057;48.554;14.454;2023-12-14T06:16:01;92815.00;;;11.30
41940;BMP180;23057;48.554;14.454;2023-12-14T06:18:33;92813.00;;;11.30
41940;BMP180;23057;48.554;14.454;2023-12-14T06:21:04;92810.00;;;11.40
41940;BMP180;23057;48.554;14.454;2023-12-14T06:23:35;92815.00;;;11.40
41940;BMP180;23057;48.554;14.454;2023-12-14T06:26:06;92820.00;;;11.40
41940;BMP180;23057;48.554;14.454;2023-12-14T06:28:37;92824.00;;;11.40
41940;BMP180;23057;48.554;14.454;2023-12-14T06:31:17;92829.00;;;11.40
41940;BMP180;23057;48.554;14.454;2023-12-14T06:33:48;92830.00;;;11.60
41940;BMP180;23057;48.554;14.454;2023-12-14T06:36:20;92830.00;;;11.90
41940;BMP180;23057;48.554;14.454;2023-12-14T06:38:51;92834.00;;;12.10
41940;BMP180;23057;48.554;14.454;2023-12-14T06:41:22;92842.00;;;12.10
41940;BMP180;23057;48.554;14.454;2023-12-14T06:43:54;92846.00;;;11.90
41940;BMP180;23057;48.554;14.454;2023-12-14T06:46:25;92844.00;;;11.80
41940;BMP180;23057;48.554;14.454;2023-12-14T06:48:56;92852.00;;;11.70
41940;BMP180;23057;48.554;14.454;2023-12-14T06:51:27;92855.00;;;11.60
41940;BMP180;23057;48.554;14.454;2023-12-14T06:53:58;92864.00;;;11.50
41940;BMP180;23057;48.554;14.454;2023-12-14T06:56:29;92868.00;;;11.40
41940;BMP180;23057;48.554;14.454;2023-12-14T06:58:59;92869.00;;;11.40
41940;BMP180;23057;48.554;14.454;2023-12-14T07:01:30;92877.00;;;11.30
41940;BMP180;23057;48.554;14.454;2023-12-14T07:04:01;92884.00;;;11.30
41940;BMP180;23057;48.554;14.454;2023-12-14T07:06:34;92883.00;;;11.30
41940;BMP180;23057;48.554;14.454;2023-12-14T07:09:05;92897.00;;;11.30
41940;BMP180;23057;48.554;14.454;2023-12-14T07:11:36;92897.00;;;11.40
41940;BMP180;23057;48.554;14.454;2023-12-14T07:14:07;92903.00;;;11.40
41940;BMP180;23057;48.554;14.454;2023-12-14T07:16:37;92902.00;;;11.40
41940;BMP180;23057;48.554;14.454;2023-12-14T07:19:08;92916.00;;;11.40
41940;BMP180;23057;48.554;14.454;2023-12-14T07:21:41;92910.00;;;11.40
41940;BMP180;23057;48.554;14.454;2023-12-14T07:24:12;92912.00;;;11.40
41940;BMP180;23057;48.554;14.454;2023-12-14T07:26:43;92909.00;;;11.50
41940;BMP180;23057;48.554;14.454;2023-12-14T07:29:14;92922.00;;;11.50
41940;BMP180;23057;48.554;14.454;2023-12-14T07:31:45;92928.00;;;11.50
41940;BMP180;23057;48.554;14.454;2023-12-14T07:34:15;92930.00;;;11.60
41940;BMP180;23057;48.554;14.454;2023-12-14T07:36:46;92931.00;;;11.60
41940;BMP180;23057;48.554;14.454;2023-12-14T07:39:17;92930.00;;;11.60
41940;BMP180;23057;48.554;14.454;2023-12-14T07:41:48;92948.00;;;11.60
41940;BMP180;23057;48.554;14.454;2023-12-14T07:44:19;92940.00;;;11.70
41940;BMP180;23057;48.554;14.454;2023-12-14T07:46:51;92949.00;;;11.70
41940;BMP180;23057;48.554;14.454;2023-12-14T07:49:22;92946.00;;;11.70
41940;BMP180;23057;48.554;14.454;2023-12-14T07:51:54;92955.00;;;11.80
41940;BMP180;23057;48.554;14.454;2023-12-14T07:54:24;92958.00;;;11.80
41940;BMP180;23057;48.554;14.454;2023-12-14T07:56:57;92965.00;;;11.80
41940;BMP180;23057;48.554;14.454;2023-12-14T07:59:28;92964.00;;;11.80
41940;BMP180;23057;48.554;14.454;2023-12-14T08:02:00;92968.00;;;11.80
41940;BMP180;23057;48.554;14.454;2023-12-14T08:04:31;92974.00;;;11.90
41940;BMP180;23057;48.554;14.454;2023-12-14T08:07:03;92973.00;;;11.90
41940;BMP180;23057;48.554;14.454;2023-12-14T08:09:34;92984.00;;;11.90
41940;BMP180;23057;48.554;14.454;2023-12-14T08:12:05;92986.00;;;11.90
41940;BMP180;23057;48.554;14.454;2023-12-14T08:14:37;92992.00;;;12.00
41940;BMP180;23057;48.554;14.454;2023-12-14T08:17:09;92992.00;;;12.00
41940;BMP180;23057;48.554;14.454;2023-12-14T08:19:41;93004.00;;;12.00
41940;BMP180;23057;48.554;14.454;2023-12-14T08:22:13;93004.00;;;12.00
41940;BMP180;23057;48.554;14.454;2023-12-14T08:24:45;93008.00;;;12.00
41940;BMP180;23057;48.554;14.454;2023-12-14T08:27:16;93010.00;;;12.00
41940;BMP180;23057;48.554;14.454;2023-12-14T08:29:47;93018.00;;;11.90
41940;BMP180;23057;48.554;14.454;2023-12-14T08:32:18;93018.00;;;11.90
41940;BMP180;23057;48.554;14.454;2023-12-14T08:34:48;93027.00;;;11.90
41940;BMP180;23057;48.554;14.454;2023-12-14T08:37:19;93037.00;;;11.90
41940;BMP180;23057;48.554;14.454;2023-12-14T08:39:50;93031.00;;;11.80
41940;BMP180;23057;48.554;14.454;2023-12-14T08:42:22;93033.00;;;11.80
41940;BMP180;23057;48.554;14.454;2023-12-14T08:44:53;93044.00;;;11.80
41940;BMP180;23057;48.554;14.454;2023-12-14T08:47:23;93052.00;;;11.80
41940;BMP180;23057;48.554;14.454;2023-12-14T08:49:55;93048.00;;;11.80
41940;BMP180;23057;48.554;14.454;2023-12-14T08:52:25;93045.00;;;11.80
41940;BMP180;23057;48.554;14.454;2023-12-14T08:54:58;93056.00;;;11.80
41940;BMP180;23057;48.554;14.454;2023-12-14T08:57:29;93050.00;;;11.80
41940;BMP180;23057;48.554;14.454;2023-12-14T09:00:00;93060.00;;;11.80
41940;BMP180;23057;48.554;14.454;2023-12-14T09:02:31;93069.00;;;11.80
41940;BMP180;23057;48.554;14.454;2023-12-14T09:05:03;93072.00;;;11.80
41940;BMP180;23057;48.554;14.454;2023-12-14T09:07:35;93082.00;;;11.80
41940;BMP180;23057;48.554;14.454;2023-12-14T09:10:06;93085.00;;;11.70
41940;BMP180;23057;48.554;14.454;2023-12-14T09:12:37;93095.00;;;11.70
41940;BMP180;23057;48.554;14.454;2023-12-14T09:15:09;93087.00;;;11.70
41940;BMP180;23057;48.554;14.454;2023-12-14T09:17:40;93101.00;;;11.70
41940;BMP180;23057;48.554;14.454;2023-12-14T09:20:12;93101.00;;;11.70
41940;BMP180;23057;48.554;14.454;2023-12-14T09:22:44;93103.00;;;11.70
41940;BMP180;23057;48.554;14.454;2023-12-14T09:25:15;93102.00;;;11.70
41940;BMP180;23057;48.554;14.454;2023-12-14T09:27:46;93103.00;;;11.70
41940;BMP180;23057;48.554;14.454;2023-12-14T09:30:17;93109.00;;;11.70
41940;BMP180;23057;48.554;14.454;2023-12-14T09:32:47;93118.00;;;11.70
41940;BMP180;23057;48.554;14.454;2023-12-14T09:35:19;93121.00;;;11.70
41940;BMP180;23057;48.554;14.454;2023-12-14T09:37:50;93114.00;;;11.70
41940;BMP180;23057;48.554;14.454;2023-12-14T09:40:21;93124.00;;;11.70
41940;BMP180;23057;48.554;14.454;2023-12-14T09:42:53;93126.00;;;11.70
41940;BMP180;23057;48.554;14.454;2023-12-14T09:45:29;93134.00;;;11.70
41940;BMP180;23057;48.554;14.454;2023-12-14T09:48:00;93139.00;;;11.70
41940;BMP180;23057;48.554;14.454;2023-12-14T09:50:32;93134.00;;;11.80
41940;BMP180;23057;48.554;14.454;2023-12-14T09:53:04;93138.00;;;11.80
41940;BMP180;23057;48.554;14.454;2023-12-14T09:55:35;93141.00;;;11.80
41940;BMP180;23057;48.554;14.454;2023-12-14T09:58:06;93143.00;;;11.80
41940;BMP180;23057;48.554;14.454;2023-12-14T10:00:40;93144.00;;;11.90
41940;BMP180;23057;48.554;14.454;2023-12-14T10:03:23;93151.00;;;11.90
41940;BMP180;23057;48.554;14.454;2023-12-14T10:05:58;93153.00;;;11.90
41940;BMP180;23057;48.554;14.454;2023-12-14T10:08:30;93154.00;;;12.00
41940;BMP180;23057;48.554;14.454;2023-12-14T10:11:01;93162.00;;;12.00
41940;BMP180;23057;48.554;14.454;2023-12-14T10:13:45;93166.00;;;12.10
41940;BMP180;23057;48.554;14.454;2023-12-14T10:16:33;93166.00;;;12.10
41940;BMP180;23057;48.554;14.454;2023-12-14T10:19:04;93164.00;;;12.10
41940;BMP180;23057;48.554;14.454;2023-12-14T10:21:35;93162.00;;;12.10
41940;BMP180;23057;48.554;14.454;2023-12-14T10:24:06;93174.00;;;12.10
41940;BMP180;23057;48.554;14.454;2023-12-14T10:26:37;93179.00;;;12.10
41940;BMP180;23057;48.554;14.454;2023-12-14T10:29:08;93174.00;;;12.00
41940;BMP180;23057;48.554;14.454;2023-12-14T10:31:40;93175.00;;;12.00
41940;BMP180;23057;48.554;14.454;2023-12-14T10:34:11;93169.00;;;12.00
41940;BMP180;23057;48.554;14.454;2023-12-14T10:36:46;93171.00;;;12.00
41940;BMP180;23057;48.554;14.454;2023-12-14T10:39:20;93176.00;;;12.00
41940;BMP180;23057;48.554;14.454;2023-12-14T10:41:52;93179.00;;;11.90
41940;BMP180;23057;48.554;14.454;2023-12-14T10:44:29;93190.00;;;11.90
41940;BMP180;23057;48.554;14.454;2023-12-14T10:47:06;93192.00;;;11.90
41940;BMP180;23057;48.554;14.454;2023-12-14T10:49:38;93191.00;;;11.90
41940;BMP180;23057;48.554;14.454;2023-12-14T10:52:09;93194.00;;;11.90
41940;BMP180;23057;48.554;14.454;2023-12-14T10:54:41;93199.00;;;11.80
41940;BMP180;23057;48.554;14.454;2023-12-14T10:57:14;93196.00;;;11.80
41940;BMP180;23057;48.554;14.454;2023-12-14T10:59:49;93194.00;;;11.80
41940;BMP180;23057;48.554;14.454;2023-12-14T11:02:20;93201.00;;;11.80
41940;BMP180;23057;48.554;14.454;2023-12-14T11:05:17;93203.00;;;11.80
41940;BMP180;23057;48.554;14.454;2023-12-14T11:07:55;93212.00;;;11.80
41940;BMP180;23057;48.554;14.454;2023-12-14T11:10:40;93211.00;;;11.70
41940;BMP180;23057;48.554;14.454;2023-12-14T11:13:13;93202.00;;;11.70
41940;BMP180;23057;48.554;14.454;2023-12-14T11:15:50;93215.00;;;11.70
41940;BMP180;23057;48.554;14.454;2023-12-14T11:18:24;93217.00;;;11.70
41940;BMP180;23057;48.554;14.454;2023-12-14T11:21:01;93224.00;;;11.70
41940;BMP180;23057;48.554;14.454;2023-12-14T11:23:43;93226.00;;;11.70
41940;BMP180;23057;48.554;14.454;2023-12-14T11:26:21;93229.00;;;11.60
41940;BMP180;23057;48.554;14.454;2023-12-14T11:28:56;93237.00;;;11.60
41940;BMP180;23057;48.554;14.454;2023-12-14T11:31:27;93237.00;;;11.60
41940;BMP180;23057;48.554;14.454;2023-12-14T11:33:59;93234.00;;;11.50
41940;BMP180;23057;48.554;14.454;2023-12-14T11:36:31;93243.00;;;11.40
41940;BMP180;23057;48.554;14.454;2023-12-14T11:39:02;93246.00;;;11.40
41940;BMP180;23057;48.554;14.454;2023-12-14T11:41:36;93244.00;;;11.40
41940;BMP180;23057;48.554;14.454;2023-12-14T11:44:08;93254.00;;;11.40
41940;BMP180;23057;48.554;14.454;2023-12-14T11:46:39;93255.00;;;11.30
41940;BMP180;23057;48.554;14.454;2023-12-14T11:49:12;93265.00;;;11.30
41940;BMP180;23057;48.554;14.454;2023-12-14T11:51:46;93263.00;;;11.30
41940;BMP180;23057;48.554;14.454;2023-12-14T11:54:17;93263.00;;;11.30
41940;BMP180;23057;48.554;14.454;2023-12-14T11:56:50;93257.00;;;11.40
41940;BMP180;23057;48.554;14.454;2023-12-14T11:59:23;93258.00;;;11.40
41940;BMP180;23057;48.554;14.454;2023-12-14T12:01:55;93268.00;;;11.50
41940;BMP180;23057;48.554;14.454;2023-12-14T12:04:30;93272.00;;;11.50
41940;BMP180;23057;48.554;14.454;2023-12-14T12:07:05;93276.00;;;11.50
41940;BMP180;23057;48.554;14.454;2023-12-14T12:09:43;93271.00;;;11.50
41940;BMP180;23057;48.554;14.454;2023-12-14T12:12:14;93267.00;;;11.50
41940;BMP180;23057;48.554;14.454;2023-12-14T12:14:45;93263.00;;;11.50
41940;BMP180;23057;48.554;14.454;2023-12-14T12:17:16;93262.00;;;11.50
41940;BMP180;23057;48.554;14.454;2023-12-14T12:19:48;93263.00;;;11.60
41940;BMP180;23057;48.554;14.454;2023-12-14T12:22:19;93274.00;;;11.60
41940;BMP180;23057;48.554;14.454;2023-12-14T12:24:50;93271.00;;;11.60
41940;BMP180;23057;48.554;14.454;2023-12-14T12:27:21;93276.00;;;11.60
41940;BMP180;23057;48.554;14.454;2023-12-14T12:29:52;93279.00;;;11.60
41940;BMP180;23057;48.554;14.454;2023-12-14T12:32:24;93286.00;;;11.60
41940;BMP180;23057;48.554;14.454;2023-12-14T12:34:55;93287.00;;;11.60
41940;BMP180;23057;48.554;14.454;2023-12-14T12:37:26;93282.00;;;11.60
41940;BMP180;23057;48.554;14.454;2023-12-14T12:39:57;93294.00;;;11.60
41940;BMP180;23057;48.554;14.454;2023-12-14T12:42:28;93296.00;;;11.60
41940;BMP180;23057;48.554;14.454;2023-12-14T12:45:00;93294.00;;;11.60
41940;BMP180;23057;48.554;14.454;2023-12-14T12:47:31;93296.00;;;11.70
41940;BMP180;23057;48.554;14.454;2023-12-14T12:50:02;93303.00;;;11.70
41940;BMP180;23057;48.554;14.454;2023-12-14T12:52:33;93303.00;;;11.70
41940;BMP180;23057;48.554;14.454;2023-12-14T12:55:06;93303.00;;;11.70
41940;BMP180;23057;48.554;14.454;2023-12-14T12:57:37;93297.00;;;11.70
41940;BMP180;23057;48.554;14.454;2023-12-14T13:00:09;93318.00;;;11.70
41940;BMP180;23057;48.554;14.454;2023-12-14T13:02:43;93314.00;;;11.70
41940;BMP180;23057;48.554;14.454;2023-12-14T13:05:17;93324.00;;;11.70
41940;BMP180;23057;48.554;14.454;2023-12-14T13:07:48;93329.00;;;11.70
41940;BMP180;23057;48.554;14.454;2023-12-14T13:10:20;93333.00;;;11.70
41940;BMP180;23057;48.554;14.454;2023-12-14T13:12:55;93340.00;;;11.70
41940;BMP180;23057;48.554;14.454;2023-12-14T13:15:27;93343.00;;;11.70
41940;BMP180;23057;48.554;14.454;2023-12-14T13:17:59;93337.00;;;11.70
41940;BMP180;23057;48.554;14.454;2023-12-14T13:20:30;93337.00;;;11.70
41940;BMP180;23057;48.554;14.454;2023-12-14T13:23:01;93338.00;;;11.80
41940;BMP180;23057;48.554;14.454;2023-12-14T13:25:33;93343.00;;;11.80
41940;BMP180;23057;48.554;14.454;2023-12-14T13:28:05;93344.00;;;11.80
41940;BMP180;23057;48.554;14.454;2023-12-14T13:30:36;93350.00;;;11.80
41940;BMP180;23057;48.554;14.454;2023-12-14T13:33:07;93349.00;;;11.80
41940;BMP180;23057;48.554;14.454;2023-12-14T13:35:41;93352.00;;;11.80
41940;BMP180;23057;48.554;14.454;2023-12-14T13:38:14;93355.00;;;11.80
41940;BMP180;23057;48.554;14.454;2023-12-14T13:40:44;93363.00;;;11.80
41940;BMP180;23057;48.554;14.454;2023-12-14T13:43:15;93365.00;;;11.80
41940;BMP180;23057;48.554;14.454;2023-12-14T13:45:46;93368.00;;;11.70
41940;BMP180;23057;48.554;14.454;2023-12-14T13:48:18;93381.00;;;11.70
41940;BMP180;23057;48.554;14.454;2023-12-14T13:50:49;93379.00;;;11.70
41940;BMP180;23057;48.554;14.454;2023-12-14T13:53:20;93387.00;;;11.70
41940;BMP180;23057;48.554;14.454;2023-12-14T13:55:51;93389.00;;;11.70
41940;BMP180;23057;48.554;14.454;2023-12-14T13:58:21;93397.00;;;11.70
41940;BMP180;23057;48.554;14.454;2023-12-14T14:00:52;93410.00;;;11.70
41940;BMP180;23057;48.554;14.454;2023-12-14T14:03:23;93396.00;;;11.70
41940;BMP180;23057;48.554;14.454;2023-12-14T14:05:56;93416.00;;;11.70
41940;BMP180;23057;48.554;14.454;2023-12-14T14:08:28;93409.00;;;11.60
41940;BMP180;23057;48.554;14.454;2023-12-14T14:11:02;93420.00;;;11.60
41940;BMP180;23057;48.554;14.454;2023-12-14T14:13:33;93419.00;;;11.60
41940;BMP180;23057;48.554;14.454;2023-12-14T14:16:06;93419.00;;;11.60
41940;BMP180;23057;48.554;14.454;2023-12-14T14:18:37;93424.00;;;11.60
41940;BMP180;23057;48.554;14.454;2023-12-14T14:21:08;93427.00;;;11.60